createdAt,value
2022-11-05T00:00:35.459Z,11.10
2022-11-05T00:03:20.583Z,5.13
2022-11-05T00:06:09.765Z,8.18
2022-11-05T00:08:55.168Z,4.35
2022-11-05T00:11:45.037Z,7.47
2022-11-05T00:14:30.705Z,5.32
2022-11-05T00:16:57.191Z,4.63
2022-11-05T00:19:23.907Z,4.03
2022-11-05T00:22:08.935Z,4.22
2022-11-05T00:24:54.477Z,4.38
2022-11-05T00:27:20.966Z,3.13
2022-11-05T00:29:47.478Z,5.25
2022-11-05T00:32:14.021Z,2.63
2022-11-05T00:34:40.629Z,3.25
2022-11-05T00:37:07.173Z,4.00
2022-11-05T00:39:33.709Z,18.75
2022-11-05T00:42:18.720Z,5.88
2022-11-05T00:45:03.742Z,3.10
2022-11-05T00:47:50.445Z,3.17
2022-11-05T00:50:18.299Z,5.68
2022-11-05T00:52:57.575Z,3.55
2022-11-05T00:55:29.108Z,2.70
2022-11-05T00:57:57.164Z,3.30
2022-11-05T01:00:24.933Z,3.30
2022-11-05T01:02:51.546Z,3.10
2022-11-05T01:05:18.432Z,3.72
2022-11-05T01:07:45.010Z,2.33
2022-11-05T01:10:11.516Z,4.20
2022-11-05T01:12:38.037Z,2.55
2022-11-05T01:15:05.080Z,4.65
2022-11-05T01:17:31.569Z,2.60
2022-11-05T01:19:58.053Z,4.88
2022-11-05T01:22:24.569Z,2.67
2022-11-05T01:24:51.078Z,2.58
2022-11-05T01:27:17.627Z,2.28
2022-11-05T01:29:44.175Z,1.98
2022-11-05T01:32:10.737Z,1.90
2022-11-05T01:34:37.260Z,2.33
2022-11-05T01:37:03.769Z,2.80
2022-11-05T01:39:30.363Z,2.80
2022-11-05T01:41:58.723Z,2.97
2022-11-05T01:44:52.394Z,3.70
2022-11-05T01:47:42.945Z,2.65
2022-11-05T01:50:31.342Z,2.95
2022-11-05T01:53:15.787Z,3.15
2022-11-05T01:55:47.783Z,2.60
2022-11-05T01:58:21.308Z,4.35
2022-11-05T02:00:48.370Z,2.13
2022-11-05T02:03:16.208Z,5.63
2022-11-05T02:05:43.504Z,8.80
2022-11-05T02:08:17.852Z,7.13
2022-11-05T02:10:45.917Z,6.70
2022-11-05T02:13:12.843Z,7.10
2022-11-05T02:15:52.865Z,5.63
2022-11-05T02:18:24.721Z,6.75
2022-11-05T02:21:27.922Z,5.50
2022-11-05T02:24:06.382Z,4.40
2022-11-05T02:26:35.810Z,3.92
2022-11-05T02:29:26.724Z,5.90
2022-11-05T02:32:17.868Z,4.32
2022-11-05T02:35:00.561Z,7.97
2022-11-05T02:37:39.528Z,4.25
2022-11-05T02:42:46.758Z,4.90
2022-11-05T02:45:22.731Z,6.22
2022-11-05T02:48:00.721Z,5.38
2022-11-05T02:51:07.262Z,4.25
2022-11-05T02:53:53.656Z,3.65
2022-11-05T02:56:33.770Z,2.97
2022-11-05T02:59:00.289Z,4.53
2022-11-05T03:01:26.870Z,5.25
2022-11-05T03:04:06.623Z,3.80
2022-11-05T03:06:48.708Z,3.83
2022-11-05T03:09:49.234Z,6.00
2022-11-05T03:12:37.686Z,5.30
2022-11-05T03:15:39.348Z,5.22
2022-11-05T03:18:05.786Z,4.30
2022-11-05T03:20:36.805Z,3.80
2022-11-05T03:23:24.761Z,5.78
2022-11-05T03:25:57.707Z,7.22
2022-11-05T03:28:27.247Z,5.45
2022-11-05T03:30:56.866Z,5.90
2022-11-05T03:33:27.558Z,8.57
2022-11-05T03:35:58.153Z,6.80
2022-11-05T03:38:29.253Z,5.45
2022-11-05T03:40:59.900Z,9.23
2022-11-05T03:43:30.542Z,6.85
2022-11-05T03:46:02.044Z,5.78
2022-11-05T03:48:31.422Z,3.17
2022-11-05T03:50:57.894Z,4.32
2022-11-05T03:53:29.502Z,5.22
2022-11-05T03:56:11.642Z,5.10
2022-11-05T03:58:43.858Z,8.35
2022-11-05T04:01:11.137Z,5.78
2022-11-05T04:03:37.722Z,3.65
2022-11-05T04:06:24.864Z,1.80
2022-11-05T04:09:10.376Z,5.78
2022-11-05T04:11:55.702Z,4.65
2022-11-05T04:14:22.328Z,3.60
2022-11-05T04:17:06.953Z,5.50
2022-11-05T04:19:56.715Z,5.18
2022-11-05T04:22:43.181Z,3.60
2022-11-05T04:25:10.290Z,6.68
2022-11-05T04:27:36.866Z,7.30
2022-11-05T04:30:19.295Z,5.72
2022-11-05T04:33:06.828Z,5.47
2022-11-05T04:35:37.626Z,9.82
2022-11-05T04:38:06.188Z,6.00
2022-11-05T04:40:33.077Z,5.35
2022-11-05T04:43:00.275Z,9.07
2022-11-05T04:45:29.332Z,4.10
2022-11-05T04:50:22.971Z,7.25
2022-11-05T04:52:49.528Z,6.05
2022-11-05T04:55:16.208Z,7.20
2022-11-05T04:57:43.109Z,9.93
2022-11-05T05:00:11.179Z,5.47
2022-11-05T05:02:37.992Z,4.70
2022-11-05T05:05:05.506Z,7.55
2022-11-05T05:07:35.125Z,5.78
2022-11-05T05:10:03.188Z,10.13
2022-11-05T05:12:29.806Z,12.32
2022-11-05T05:14:56.414Z,10.50
2022-11-05T05:17:23.231Z,13.82
2022-11-05T05:20:09.024Z,13.77
2022-11-05T05:22:35.531Z,9.60
2022-11-05T05:25:02.323Z,9.20
2022-11-05T05:27:29.567Z,11.27
2022-11-05T05:29:59.943Z,10.43
2022-11-05T05:32:27.102Z,9.80
2022-11-05T05:34:53.667Z,9.23
2022-11-05T05:37:20.305Z,5.93
2022-11-05T05:39:47.848Z,5.88
2022-11-05T05:42:14.998Z,6.53
2022-11-05T05:44:41.564Z,5.05
2022-11-05T05:47:08.092Z,7.85
2022-11-05T05:49:34.686Z,8.40
2022-11-05T05:52:01.263Z,6.55
2022-11-05T05:54:32.119Z,6.10
2022-11-05T05:57:00.017Z,5.90
2022-11-05T05:59:26.546Z,4.45
2022-11-05T06:01:53.163Z,6.78
2022-11-05T06:04:20.591Z,6.60
2022-11-05T06:06:47.122Z,6.65
2022-11-05T06:09:14.528Z,6.50
2022-11-05T06:11:41.590Z,11.38
2022-11-05T06:14:12.551Z,4.95
2022-11-05T06:16:40.040Z,4.20
2022-11-05T06:19:07.152Z,8.60
2022-11-05T06:21:37.336Z,3.35
2022-11-05T06:24:04.290Z,2.58
2022-11-05T06:26:31.092Z,2.97
2022-11-05T06:28:57.605Z,4.97
2022-11-05T06:31:24.847Z,6.28
2022-11-05T06:33:51.573Z,3.00
2022-11-05T06:36:19.364Z,2.03
2022-11-05T06:38:46.507Z,1.90
2022-11-05T06:41:13.220Z,6.38
2022-11-05T06:43:39.859Z,5.03
2022-11-05T06:46:06.704Z,2.28
2022-11-05T06:48:33.983Z,3.55
2022-11-05T06:51:00.762Z,12.85
2022-11-05T06:53:27.748Z,8.93
2022-11-05T06:55:54.271Z,3.10
2022-11-05T06:58:20.894Z,18.48
2022-11-05T07:00:56.602Z,10.18
2022-11-05T07:03:23.159Z,12.05
2022-11-05T07:05:51.028Z,8.70
2022-11-05T07:08:17.770Z,12.32
2022-11-05T07:10:44.838Z,16.10
2022-11-05T07:13:12.013Z,24.35
2022-11-05T07:15:39.062Z,16.40
2022-11-05T07:18:07.529Z,11.45
2022-11-05T07:20:34.771Z,10.00
2022-11-05T07:23:06.275Z,9.30
2022-11-05T07:25:34.180Z,14.57
2022-11-05T07:28:01.146Z,13.18
2022-11-05T07:30:29.055Z,7.43
2022-11-05T07:32:55.677Z,9.82
2022-11-05T07:35:22.278Z,10.07
2022-11-05T07:37:51.027Z,10.90
2022-11-05T07:40:21.951Z,5.68
2022-11-05T07:42:51.352Z,9.73
2022-11-05T07:45:18.905Z,6.70
2022-11-05T07:47:56.683Z,13.67
2022-11-05T07:50:25.979Z,11.77
2022-11-05T07:52:52.790Z,3.70
2022-11-05T07:55:20.344Z,7.85
2022-11-05T07:57:49.824Z,4.87
2022-11-05T08:00:20.167Z,4.38
2022-11-05T08:02:59.708Z,4.43
2022-11-05T08:05:31.895Z,5.75
2022-11-05T08:07:58.447Z,3.50
2022-11-05T08:10:25.418Z,4.20
2022-11-05T08:12:56.232Z,3.33
2022-11-05T08:15:23.832Z,10.30
2022-11-05T08:17:50.848Z,7.73
2022-11-05T08:20:17.683Z,4.80
2022-11-05T08:22:44.937Z,3.72
2022-11-05T08:25:13.173Z,4.65
2022-11-05T08:27:40.276Z,3.65
2022-11-05T08:30:09.528Z,4.68
2022-11-05T08:32:36.146Z,2.90
2022-11-05T08:35:03.077Z,4.13
2022-11-05T08:37:29.618Z,3.47
2022-11-05T08:39:56.191Z,5.32
2022-11-05T08:42:22.723Z,4.53
2022-11-05T08:44:49.266Z,2.95
2022-11-05T08:47:15.816Z,4.13
2022-11-05T08:49:42.344Z,3.58
2022-11-05T08:52:08.910Z,4.40
2022-11-05T08:54:35.542Z,3.83
2022-11-05T08:57:02.151Z,3.03
2022-11-05T08:59:29.834Z,5.70
2022-11-05T09:01:56.485Z,2.83
2022-11-05T09:04:23.245Z,3.50
2022-11-05T09:06:49.775Z,4.05
2022-11-05T09:09:16.284Z,2.95
2022-11-05T09:12:10.496Z,3.25
2022-11-05T09:14:30.147Z,3.53
2022-11-05T09:16:56.706Z,3.38
2022-11-05T09:19:23.243Z,4.38
2022-11-05T09:21:49.738Z,2.50
2022-11-05T09:24:16.317Z,2.55
2022-11-05T09:26:42.820Z,2.45
2022-11-05T09:29:14.252Z,3.47
2022-11-05T09:31:41.383Z,4.68
2022-11-05T09:34:07.976Z,2.25
2022-11-05T09:36:34.462Z,2.78
2022-11-05T09:39:01.118Z,2.75
2022-11-05T09:41:32.043Z,3.03
2022-11-05T09:44:23.934Z,3.10
2022-11-05T09:47:05.113Z,2.75
2022-11-05T09:49:41.132Z,2.92
2022-11-05T09:52:18.451Z,4.57
2022-11-05T09:54:46.042Z,3.40
2022-11-05T09:57:17.142Z,5.35
2022-11-05T09:59:48.406Z,4.40
2022-11-05T10:02:25.556Z,4.22
2022-11-05T10:04:58.282Z,4.28
2022-11-05T10:07:28.167Z,2.63
2022-11-05T10:10:07.777Z,2.63
2022-11-05T10:12:46.546Z,3.15
2022-11-05T10:15:19.641Z,2.40
2022-11-05T10:17:54.618Z,4.43
2022-11-05T10:20:34.782Z,2.63
2022-11-05T10:23:16.697Z,5.13
2022-11-05T10:25:48.610Z,2.95
2022-11-05T10:28:20.116Z,1.55
2022-11-05T10:30:50.031Z,1.60
2022-11-05T10:33:29.369Z,1.60
2022-11-05T10:36:02.851Z,3.10
2022-11-05T10:38:29.512Z,4.15
2022-11-05T10:41:05.444Z,2.22
2022-11-05T10:43:41.812Z,1.63
2022-11-05T10:46:36.461Z,1.85
2022-11-05T10:49:34.123Z,1.90
2022-11-05T10:52:20.569Z,3.13
2022-11-05T10:54:49.884Z,1.52
2022-11-05T10:57:28.414Z,2.83
2022-11-05T11:00:15.095Z,3.22
2022-11-05T11:02:49.616Z,1.23
2022-11-05T11:05:30.029Z,2.20
2022-11-05T11:08:11.590Z,2.28
2022-11-05T11:10:48.846Z,2.72
2022-11-05T11:13:26.823Z,1.85
2022-11-05T11:15:53.900Z,2.30
2022-11-05T11:18:40.099Z,3.88
2022-11-05T11:21:14.716Z,2.00
2022-11-05T11:23:43.354Z,1.85
2022-11-05T11:26:14.651Z,1.60
2022-11-05T11:28:47.287Z,2.42
2022-11-05T11:31:22.250Z,1.90
2022-11-05T11:33:56.833Z,4.32
2022-11-05T11:36:33.024Z,2.53
2022-11-05T11:39:04.326Z,3.03
2022-11-05T11:41:43.081Z,5.35
2022-11-05T11:44:17.596Z,2.78
2022-11-05T11:46:49.552Z,2.20
2022-11-05T11:49:46.568Z,3.30
2022-11-05T11:52:16.154Z,4.93
2022-11-05T11:54:43.107Z,2.45
2022-11-05T11:57:27.231Z,1.90
2022-11-05T12:00:08.472Z,2.88
2022-11-05T12:03:02.487Z,2.95
2022-11-05T12:05:29.064Z,5.35
2022-11-05T12:08:01.301Z,2.63
2022-11-05T12:10:52.516Z,3.17
2022-11-05T12:13:20.492Z,2.75
2022-11-05T12:16:00.796Z,2.90
2022-11-05T12:18:45.993Z,3.60
2022-11-05T12:21:47.748Z,4.25
2022-11-05T12:24:26.171Z,2.00
2022-11-05T12:27:05.450Z,2.92
2022-11-05T12:29:37.818Z,2.17
2022-11-05T12:32:25.577Z,2.28
2022-11-05T12:35:13.761Z,1.98
2022-11-05T12:37:46.377Z,3.08
2022-11-05T12:40:40.819Z,2.13
2022-11-05T12:43:23.147Z,2.55
2022-11-05T12:46:14.308Z,1.90
2022-11-05T12:49:13.143Z,2.78
2022-11-05T12:52:30.444Z,2.75
2022-11-05T12:55:11.146Z,1.60
2022-11-05T12:57:41.643Z,1.90
2022-11-05T13:00:18.563Z,2.90
2022-11-05T13:02:54.550Z,1.75
2022-11-05T13:05:39.112Z,4.97
2022-11-05T13:08:21.640Z,2.33
2022-11-05T13:11:08.725Z,1.95
2022-11-05T13:14:15.897Z,2.50
2022-11-05T13:16:47.819Z,2.75
2022-11-05T13:19:24.562Z,2.10
2022-11-05T13:21:56.764Z,2.00
2022-11-05T13:24:23.225Z,9.23
2022-11-05T13:26:55.417Z,3.45
2022-11-05T13:29:32.747Z,4.28
2022-11-05T13:32:08.247Z,1.95
2022-11-05T13:34:37.704Z,3.58
2022-11-05T13:37:25.358Z,2.13
2022-11-05T13:40:01.678Z,5.03
2022-11-05T13:42:57.739Z,2.50
2022-11-05T13:46:01.404Z,2.78
2022-11-05T13:48:57.515Z,2.33
2022-11-05T13:51:47.597Z,4.50
2022-11-05T13:54:33.263Z,4.28
2022-11-05T13:57:20.775Z,2.42
2022-11-05T13:59:59.438Z,5.07
2022-11-05T14:02:31.258Z,3.53
2022-11-05T14:05:02.506Z,3.20
2022-11-05T14:07:32.376Z,3.22
2022-11-05T14:10:07.277Z,4.53
2022-11-05T14:12:39.907Z,3.95
2022-11-05T14:15:09.412Z,4.43
2022-11-05T14:18:00.981Z,3.85
2022-11-05T14:20:30.434Z,3.15
2022-11-05T14:23:25.099Z,5.47
2022-11-05T14:25:57.360Z,5.47
2022-11-05T14:28:36.343Z,5.65
2022-11-05T14:31:04.758Z,4.30
2022-11-05T14:33:38.614Z,4.45
2022-11-05T14:36:33.341Z,6.00
2022-11-05T14:39:13.496Z,7.00
2022-11-05T14:41:55.454Z,7.40
2022-11-05T14:44:23.398Z,7.28
2022-11-05T14:46:52.280Z,5.50
2022-11-05T14:49:25.844Z,6.28
2022-11-05T14:51:55.929Z,6.78
2022-11-05T14:54:27.879Z,5.63
2022-11-05T14:57:00.103Z,6.93
2022-11-05T14:59:31.710Z,5.32
2022-11-05T15:02:03.930Z,6.95
2022-11-05T15:04:40.519Z,7.78
2022-11-05T15:07:07.051Z,9.00
2022-11-05T15:09:53.715Z,8.13
2022-11-05T15:12:35.420Z,6.55
2022-11-05T15:15:03.937Z,7.88
2022-11-05T15:17:37.296Z,8.45
2022-11-05T15:20:06.520Z,7.65
2022-11-05T15:22:37.489Z,7.57
2022-11-05T15:25:05.651Z,7.20
2022-11-05T15:27:34.868Z,8.02
2022-11-05T15:30:31.032Z,8.40
2022-11-05T15:33:18.940Z,17.63
2022-11-05T15:35:45.557Z,9.95
2022-11-05T15:38:30.006Z,9.15
2022-11-05T15:41:27.536Z,8.80
2022-11-05T15:43:54.187Z,9.88
2022-11-05T15:46:24.545Z,8.48
2022-11-05T15:49:12.824Z,10.73
2022-11-05T15:51:39.470Z,8.05
2022-11-05T15:54:29.068Z,7.05
2022-11-05T15:56:58.094Z,9.20
2022-11-05T15:59:26.793Z,9.07
2022-11-05T16:04:27.591Z,7.50
2022-11-05T16:07:01.516Z,6.95
2022-11-05T16:09:30.587Z,8.43
2022-11-05T16:12:18.213Z,7.80
2022-11-05T16:15:06.899Z,7.20
2022-11-05T16:20:23.069Z,10.95
2022-11-05T16:22:56.397Z,8.23
2022-11-05T16:25:31.411Z,8.98
2022-11-05T16:27:59.695Z,10.93
2022-11-05T16:30:26.693Z,5.72
2022-11-05T16:32:54.021Z,6.80
2022-11-05T16:35:25.326Z,8.32
2022-11-05T16:37:52.722Z,6.30
2022-11-05T16:40:22.604Z,5.30
2022-11-05T16:42:51.554Z,7.25
2022-11-05T16:45:22.090Z,8.77
2022-11-05T16:47:48.897Z,7.13
2022-11-05T16:50:23.343Z,8.52
2022-11-05T16:52:49.892Z,7.05
2022-11-05T16:55:17.744Z,10.05
2022-11-05T16:57:47.786Z,6.30
2022-11-05T17:00:17.223Z,9.45
2022-11-05T17:02:44.133Z,6.72
2022-11-05T17:05:29.667Z,7.57
2022-11-05T17:07:56.898Z,9.07
2022-11-05T17:10:25.535Z,10.82
2022-11-05T17:12:52.792Z,9.80
2022-11-05T17:15:22.764Z,9.63
2022-11-05T17:17:50.188Z,5.85
2022-11-05T17:20:40.877Z,7.32
2022-11-05T17:23:14.982Z,11.73
2022-11-05T17:25:44.017Z,7.35
2022-11-05T17:30:41.481Z,9.73
2022-11-05T17:33:10.426Z,6.95
2022-11-05T17:38:07.996Z,9.85
2022-11-05T17:40:36.275Z,14.38
2022-11-05T17:43:03.769Z,9.13
2022-11-05T17:45:30.511Z,9.57
2022-11-05T17:47:57.117Z,7.43
2022-11-05T17:50:24.516Z,6.30
2022-11-05T17:52:51.258Z,10.63
2022-11-05T17:55:17.882Z,8.05
2022-11-05T17:57:46.833Z,10.65
2022-11-05T18:02:41.047Z,9.70
2022-11-05T18:05:08.144Z,8.55
2022-11-05T18:07:34.706Z,10.55
2022-11-05T18:10:01.256Z,11.57
2022-11-05T18:12:27.828Z,10.50
2022-11-05T18:14:54.349Z,10.07
2022-11-05T18:17:20.926Z,9.98
2022-11-05T18:19:47.747Z,15.27
2022-11-05T18:22:16.237Z,12.82
2022-11-05T18:24:42.800Z,7.70
2022-11-05T18:27:09.324Z,11.00
2022-11-05T18:29:36.206Z,9.25
2022-11-05T18:32:03.032Z,9.13
2022-11-05T18:34:29.683Z,7.20
2022-11-05T18:36:56.814Z,13.75
2022-11-05T18:39:23.722Z,12.73
2022-11-05T18:41:50.268Z,11.73
2022-11-05T18:44:17.076Z,11.60
2022-11-05T18:46:57.658Z,11.00
2022-11-05T18:49:25.992Z,12.82
2022-11-05T18:51:52.586Z,10.25
2022-11-05T18:54:19.104Z,10.88
2022-11-05T18:56:46.007Z,13.73
2022-11-05T19:02:00.758Z,11.33
2022-11-05T19:04:27.473Z,13.77
2022-11-05T19:06:54.388Z,13.45
2022-11-05T19:09:21.074Z,13.32
2022-11-05T19:11:47.775Z,11.30
2022-11-05T19:14:14.408Z,13.48
2022-11-05T19:16:41.034Z,15.55
2022-11-05T19:19:07.750Z,11.27
2022-11-05T19:21:34.368Z,11.93
2022-11-05T19:24:02.493Z,18.00
2022-11-05T19:26:29.897Z,13.10
2022-11-05T19:29:01.798Z,15.13
2022-11-05T19:31:28.716Z,15.00
2022-11-05T19:33:55.347Z,12.63
2022-11-05T19:36:23.863Z,13.93
2022-11-05T19:38:57.551Z,12.10
2022-11-05T19:41:25.188Z,12.18
2022-11-05T19:43:54.523Z,14.32
2022-11-05T19:46:23.053Z,13.90
2022-11-05T19:48:50.531Z,14.00
2022-11-05T19:51:23.698Z,15.65
2022-11-05T19:53:52.692Z,12.60
2022-11-05T19:58:52.008Z,9.80
2022-11-05T20:01:20.785Z,10.25
2022-11-05T20:03:47.759Z,12.82
2022-11-05T20:06:21.667Z,11.88
2022-11-05T20:09:15.233Z,11.32
2022-11-05T20:11:39.961Z,11.07
2022-11-05T20:14:08.155Z,16.65
2022-11-05T20:16:39.954Z,16.17
2022-11-05T20:19:10.196Z,15.18
2022-11-05T20:21:37.235Z,14.40
2022-11-05T20:24:04.286Z,33.35
2022-11-05T20:26:31.709Z,45.28
2022-11-05T20:28:58.654Z,55.15
2022-11-05T20:31:25.259Z,24.67
2022-11-05T20:33:52.347Z,17.13
2022-11-05T20:36:22.207Z,16.55
2022-11-05T20:38:50.351Z,13.60
2022-11-05T20:41:17.565Z,13.43
2022-11-05T20:43:44.270Z,11.73
2022-11-05T20:46:14.131Z,8.43
2022-11-05T20:48:43.629Z,13.25
2022-11-05T20:51:13.548Z,8.32
2022-11-05T20:53:40.405Z,9.90
2022-11-05T20:56:10.476Z,9.52
2022-11-05T20:58:37.849Z,6.75
2022-11-05T21:01:05.392Z,8.55
2022-11-05T21:03:32.488Z,7.68
2022-11-05T21:06:04.163Z,7.57
2022-11-05T21:08:30.714Z,12.73
2022-11-05T21:10:57.753Z,11.43
2022-11-05T21:13:25.136Z,11.60
2022-11-05T21:15:53.899Z,12.55
2022-11-05T21:18:22.742Z,9.13
2022-11-05T21:20:50.438Z,8.55
2022-11-05T21:23:17.604Z,7.80
2022-11-05T21:25:45.156Z,7.47
2022-11-05T21:28:13.450Z,9.68
2022-11-05T21:30:45.065Z,7.80
2022-11-05T21:33:13.389Z,9.80
2022-11-05T21:35:41.458Z,7.05
2022-11-05T21:38:08.141Z,5.77
2022-11-05T21:40:34.812Z,5.97
2022-11-05T21:43:01.568Z,6.68
2022-11-05T21:45:28.278Z,4.95
2022-11-05T21:47:55.360Z,4.97
2022-11-05T21:50:44.615Z,8.00
2022-11-05T21:53:34.075Z,8.00
2022-11-05T21:56:20.160Z,12.55
2022-11-05T21:59:05.291Z,13.45
2022-11-05T22:01:31.969Z,14.55
2022-11-05T22:04:02.796Z,10.05
2022-11-05T22:06:32.904Z,11.65
2022-11-05T22:08:59.489Z,10.00
2022-11-05T22:11:26.090Z,9.60
2022-11-05T22:13:53.525Z,6.97
2022-11-05T22:16:20.238Z,11.63
2022-11-05T22:18:46.796Z,9.98
2022-11-05T22:21:18.299Z,10.68
2022-11-05T22:23:44.904Z,8.55
2022-11-05T22:26:11.511Z,21.83
2022-11-05T22:28:38.064Z,9.50
2022-11-05T22:31:04.618Z,7.47
2022-11-05T22:33:31.490Z,10.85
2022-11-05T22:35:57.982Z,7.65
2022-11-05T22:38:24.548Z,6.38
2022-11-05T22:40:51.067Z,4.80
2022-11-05T22:43:17.566Z,6.28
2022-11-05T22:45:44.047Z,7.28
2022-11-05T22:48:10.945Z,8.60
2022-11-05T22:50:38.183Z,8.32
2022-11-05T22:53:04.692Z,11.95
2022-11-05T22:55:31.282Z,10.30
2022-11-05T22:57:57.780Z,9.45
2022-11-05T23:00:35.776Z,8.18
2022-11-05T23:03:03.123Z,7.50
2022-11-05T23:05:30.031Z,6.10
2022-11-05T23:08:15.428Z,9.02
2022-11-05T23:11:01.104Z,6.82
2022-11-05T23:13:28.839Z,4.70
2022-11-05T23:16:14.455Z,5.78
2022-11-05T23:18:59.770Z,7.50
2022-11-05T23:21:44.926Z,4.45
2022-11-05T23:24:12.799Z,9.65
2022-11-05T23:26:52.305Z,6.80
2022-11-05T23:29:24.919Z,4.22
2022-11-05T23:32:11.105Z,6.30
2022-11-05T23:34:38.355Z,7.53
2022-11-05T23:37:23.469Z,10.20
2022-11-05T23:39:50.431Z,4.80
2022-11-05T23:42:36.391Z,5.72
2022-11-05T23:45:23.152Z,9.57
2022-11-05T23:48:08.372Z,7.85
2022-11-05T23:50:39.471Z,4.65
2022-11-05T23:53:07.430Z,6.70
2022-11-05T23:55:34.283Z,8.10
2022-11-05T23:58:00.807Z,6.53
